createdAt,value
2022-12-25T00:01:25.045Z,8.27
2022-12-25T00:03:52.806Z,8.30
2022-12-25T00:06:20.334Z,8.34
2022-12-25T00:08:47.249Z,8.37
2022-12-25T00:11:17.024Z,8.40
2022-12-25T00:13:44.846Z,8.44
2022-12-25T00:16:16.454Z,8.45
2022-12-25T00:18:43.613Z,8.47
2022-12-25T00:21:12.085Z,8.48
2022-12-25T00:23:39.710Z,8.51
2022-12-25T00:26:09.762Z,8.51
2022-12-25T00:28:36.827Z,8.54
2022-12-25T00:31:13.377Z,8.54
2022-12-25T00:33:42.715Z,8.55
2022-12-25T00:36:10.883Z,8.53
2022-12-25T00:38:39.994Z,8.55
2022-12-25T00:41:12.494Z,8.57
2022-12-25T00:43:41.812Z,8.61
2022-12-25T00:46:10.738Z,8.60
2022-12-25T00:48:38.810Z,8.62
2022-12-25T00:51:08.758Z,8.64
2022-12-25T00:53:36.334Z,8.64
2022-12-25T00:56:06.324Z,8.66
2022-12-25T00:58:35.316Z,8.67
2022-12-25T01:01:03.126Z,8.68
2022-12-25T01:03:30.565Z,8.72
2022-12-25T01:06:03.489Z,8.70
2022-12-25T01:08:33.011Z,8.74
2022-12-25T01:11:05.095Z,8.72
2022-12-25T01:13:34.996Z,8.74
2022-12-25T01:16:07.444Z,8.79
2022-12-25T01:18:34.775Z,8.80
2022-12-25T01:21:16.178Z,8.77
2022-12-25T01:23:44.773Z,8.79
2022-12-25T01:26:13.784Z,8.80
2022-12-25T01:28:42.094Z,8.82
2022-12-25T01:31:11.813Z,8.80
2022-12-25T01:33:40.423Z,8.82
2022-12-25T01:36:20.502Z,8.85
2022-12-25T01:38:47.848Z,8.86
2022-12-25T01:41:17.796Z,8.86
2022-12-25T01:43:57.505Z,8.87
2022-12-25T01:46:25.118Z,8.87
2022-12-25T01:48:54.121Z,8.85
2022-12-25T01:51:33.949Z,8.86
2022-12-25T01:54:05.598Z,8.88
2022-12-25T01:56:35.101Z,8.92
2022-12-25T01:59:02.834Z,8.90
2022-12-25T02:01:29.740Z,8.91
2022-12-25T02:04:05.121Z,8.90
2022-12-25T02:06:33.325Z,8.92
2022-12-25T02:09:00.338Z,8.93
2022-12-25T02:11:46.055Z,8.94
2022-12-25T02:14:13.073Z,8.94
2022-12-25T02:16:56.519Z,8.95
2022-12-25T02:19:57.573Z,8.97
2022-12-25T02:22:55.255Z,9.01
2022-12-25T02:25:40.625Z,9.04
2022-12-25T02:28:22.711Z,9.09
2022-12-25T02:31:01.881Z,9.08
2022-12-25T02:33:54.356Z,9.10
2022-12-25T02:36:25.060Z,9.11
2022-12-25T02:39:18.188Z,9.13
2022-12-25T02:41:48.023Z,9.14
2022-12-25T02:44:39.203Z,9.15
2022-12-25T02:47:27.074Z,9.19
2022-12-25T02:50:15.492Z,9.19
2022-12-25T02:53:03.783Z,9.21
2022-12-25T02:55:55.220Z,9.24
2022-12-25T02:58:43.863Z,9.24
2022-12-25T03:01:33.693Z,9.26
2022-12-25T03:04:26.074Z,9.29
2022-12-25T03:07:14.458Z,9.29
2022-12-25T03:10:06.027Z,9.29
2022-12-25T03:12:46.371Z,9.30
2022-12-25T03:15:32.626Z,9.25
2022-12-25T03:18:03.547Z,9.26
2022-12-25T03:20:49.709Z,9.28
2022-12-25T03:23:40.608Z,9.27
2022-12-25T03:26:27.530Z,9.31
2022-12-25T03:28:54.742Z,9.31
2022-12-25T03:31:31.266Z,9.27
2022-12-25T03:34:35.287Z,9.31
2022-12-25T03:37:17.101Z,9.30
2022-12-25T03:40:28.076Z,9.29
2022-12-25T03:43:20.597Z,9.25
2022-12-25T03:46:05.429Z,9.25
2022-12-25T03:48:54.993Z,9.30
2022-12-25T03:51:46.835Z,9.28
2022-12-25T03:54:35.709Z,9.22
2022-12-25T03:57:21.451Z,9.27
2022-12-25T04:00:06.693Z,9.29
2022-12-25T04:02:53.676Z,9.29
2022-12-25T04:05:39.634Z,9.30
2022-12-25T04:08:25.384Z,9.27
2022-12-25T04:11:11.827Z,9.21
2022-12-25T04:13:57.542Z,9.21
2022-12-25T04:16:43.104Z,9.20
2022-12-25T04:19:48.584Z,9.19
2022-12-25T04:22:33.839Z,9.20
2022-12-25T04:25:19.826Z,9.16
2022-12-25T04:28:05.093Z,9.19
2022-12-25T04:30:50.471Z,9.15
2022-12-25T04:33:36.999Z,9.19
2022-12-25T04:36:10.336Z,9.14
2022-12-25T04:38:38.482Z,9.13
2022-12-25T04:41:05.830Z,9.09
2022-12-25T04:43:33.222Z,9.14
2022-12-25T04:46:02.255Z,9.22
2022-12-25T04:48:31.767Z,9.26
2022-12-25T04:50:58.642Z,9.27
2022-12-25T04:53:25.779Z,9.30
2022-12-25T04:56:01.500Z,9.33
2022-12-25T04:58:28.429Z,9.31
2022-12-25T05:00:59.282Z,9.28
2022-12-25T05:03:26.274Z,9.26
2022-12-25T05:05:53.896Z,9.24
2022-12-25T05:08:21.657Z,9.23
2022-12-25T05:10:49.161Z,9.24
2022-12-25T05:13:16.515Z,9.21
2022-12-25T05:15:44.020Z,9.23
2022-12-25T05:18:11.173Z,9.23
2022-12-25T05:20:40.443Z,9.25
2022-12-25T05:23:12.345Z,9.27
2022-12-25T05:25:40.630Z,9.30
2022-12-25T05:28:08.010Z,9.35
2022-12-25T05:30:36.088Z,9.38
2022-12-25T05:33:03.472Z,9.39
2022-12-25T05:35:31.393Z,9.47
2022-12-25T05:37:58.440Z,9.49
2022-12-25T05:40:25.860Z,9.51
2022-12-25T05:42:52.491Z,9.49
2022-12-25T05:45:19.629Z,9.54
2022-12-25T05:47:46.454Z,9.62
2022-12-25T05:50:13.310Z,9.59
2022-12-25T05:52:40.562Z,9.63
2022-12-25T05:55:07.868Z,9.67
2022-12-25T05:57:35.867Z,9.72
2022-12-25T06:00:06.896Z,9.67
2022-12-25T06:02:35.595Z,9.70
2022-12-25T06:05:04.539Z,9.68
2022-12-25T06:07:32.913Z,9.70
2022-12-25T06:10:00.742Z,9.82
2022-12-25T06:12:29.582Z,9.78
2022-12-25T06:14:56.675Z,9.71
2022-12-25T06:17:27.622Z,9.74
2022-12-25T06:19:54.925Z,9.75
2022-12-25T06:22:22.387Z,9.79
2022-12-25T06:24:49.672Z,9.78
2022-12-25T06:27:16.488Z,9.78
2022-12-25T06:29:43.690Z,9.82
2022-12-25T06:32:11.256Z,9.77
2022-12-25T06:34:38.279Z,9.72
2022-12-25T06:37:05.412Z,9.71
2022-12-25T06:39:32.578Z,9.67
2022-12-25T06:41:59.746Z,9.63
2022-12-25T06:44:26.729Z,9.59
2022-12-25T06:46:54.498Z,9.60
2022-12-25T06:49:21.822Z,9.58
2022-12-25T06:51:48.660Z,9.58
2022-12-25T06:54:15.441Z,9.55
2022-12-25T06:56:42.579Z,9.58
2022-12-25T06:59:10.894Z,9.62
2022-12-25T07:01:45.017Z,9.54
2022-12-25T07:04:18.850Z,9.51
2022-12-25T07:06:45.933Z,9.54
2022-12-25T07:09:13.436Z,9.53
2022-12-25T07:11:40.261Z,9.51
2022-12-25T07:14:07.010Z,9.53
2022-12-25T07:16:33.846Z,9.57
2022-12-25T07:19:01.472Z,9.61
2022-12-25T07:21:30.952Z,9.61
2022-12-25T07:23:57.851Z,9.61
2022-12-25T07:26:25.055Z,9.66
2022-12-25T07:28:52.435Z,9.73
2022-12-25T07:31:19.619Z,9.69
2022-12-25T07:33:46.671Z,9.71
2022-12-25T07:36:15.090Z,9.71
2022-12-25T07:38:42.855Z,9.72
2022-12-25T07:41:12.846Z,9.75
2022-12-25T07:43:40.500Z,9.76
2022-12-25T07:46:07.942Z,9.75
2022-12-25T07:48:35.792Z,9.75
2022-12-25T07:51:05.672Z,9.79
2022-12-25T07:53:35.063Z,9.78
2022-12-25T07:56:11.998Z,9.78
2022-12-25T07:58:39.753Z,9.78
2022-12-25T08:01:17.708Z,9.76
2022-12-25T08:03:49.647Z,9.74
2022-12-25T08:06:16.888Z,9.77
2022-12-25T08:08:43.753Z,9.78
2022-12-25T08:11:10.836Z,9.78
2022-12-25T08:13:38.045Z,9.78
2022-12-25T08:16:08.698Z,9.87
2022-12-25T08:18:37.115Z,9.85
2022-12-25T08:21:06.425Z,9.88
2022-12-25T08:23:39.140Z,9.88
2022-12-25T08:26:08.739Z,9.90
2022-12-25T08:28:36.530Z,9.88
2022-12-25T08:31:08.657Z,9.93
2022-12-25T08:33:36.377Z,9.94
2022-12-25T08:36:06.490Z,9.95
2022-12-25T08:38:33.754Z,9.98
2022-12-25T08:41:00.759Z,10.01
2022-12-25T08:43:28.351Z,10.06
2022-12-25T08:45:55.806Z,10.06
2022-12-25T08:48:23.163Z,10.07
2022-12-25T08:50:51.980Z,10.08
2022-12-25T08:53:20.738Z,10.05
2022-12-25T08:55:48.537Z,10.09
2022-12-25T08:58:16.791Z,10.10
2022-12-25T09:00:43.758Z,10.15
2022-12-25T09:03:11.142Z,10.11
2022-12-25T09:05:38.381Z,10.17
2022-12-25T09:08:05.593Z,10.24
2022-12-25T09:10:36.470Z,10.22
2022-12-25T09:13:04.176Z,10.18
2022-12-25T09:15:32.234Z,10.19
2022-12-25T09:17:59.672Z,10.17
2022-12-25T09:20:26.907Z,10.15
2022-12-25T09:22:54.120Z,10.13
2022-12-25T09:25:22.278Z,10.09
2022-12-25T09:27:49.649Z,10.07
2022-12-25T09:30:16.930Z,10.05
2022-12-25T09:32:44.080Z,10.01
2022-12-25T09:35:11.670Z,10.01
2022-12-25T09:37:38.588Z,10.00
2022-12-25T09:40:07.197Z,9.97
2022-12-25T09:42:34.671Z,9.99
2022-12-25T09:45:12.255Z,9.96
2022-12-25T09:47:44.573Z,9.98
2022-12-25T09:50:21.400Z,9.97
2022-12-25T09:52:58.625Z,10.00
2022-12-25T09:55:29.788Z,10.01
2022-12-25T09:57:59.073Z,10.06
2022-12-25T10:00:36.001Z,10.08
2022-12-25T10:03:47.409Z,10.06
2022-12-25T10:06:37.237Z,10.05
2022-12-25T10:09:10.055Z,10.03
2022-12-25T10:11:42.742Z,10.02
2022-12-25T10:14:33.510Z,10.00
2022-12-25T10:17:16.182Z,10.03
2022-12-25T10:20:04.547Z,10.09
2022-12-25T10:22:46.940Z,10.08
2022-12-25T10:25:21.758Z,10.16
2022-12-25T10:27:52.964Z,10.24
2022-12-25T10:30:24.085Z,10.31
2022-12-25T10:32:52.908Z,10.24
2022-12-25T10:35:25.802Z,10.25
2022-12-25T10:38:01.134Z,10.32
2022-12-25T10:40:52.993Z,10.30
2022-12-25T10:43:28.578Z,10.26
2022-12-25T10:45:56.005Z,10.27
2022-12-25T10:48:27.921Z,10.25
2022-12-25T10:50:56.464Z,10.23
2022-12-25T10:53:26.461Z,10.27
2022-12-25T10:56:02.058Z,10.32
2022-12-25T10:58:29.391Z,10.29
2022-12-25T11:01:03.425Z,10.33
2022-12-25T11:03:35.398Z,10.32
2022-12-25T11:06:02.953Z,10.30
2022-12-25T11:08:34.632Z,10.27
2022-12-25T11:11:06.456Z,10.33
2022-12-25T11:13:39.155Z,10.37
2022-12-25T11:16:14.316Z,10.34
2022-12-25T11:18:53.002Z,10.33
2022-12-25T11:21:24.620Z,10.33
2022-12-25T11:24:17.614Z,10.36
2022-12-25T11:26:50.636Z,10.35
2022-12-25T11:29:50.718Z,10.32
2022-12-25T11:32:26.301Z,10.32
2022-12-25T11:34:53.601Z,10.29
2022-12-25T11:37:44.212Z,10.30
2022-12-25T11:40:17.729Z,10.34
2022-12-25T11:42:54.768Z,10.31
2022-12-25T11:45:32.183Z,10.32
2022-12-25T11:48:06.211Z,10.29
2022-12-25T11:50:41.810Z,10.34
2022-12-25T11:53:22.696Z,10.33
2022-12-25T11:55:54.856Z,10.29
2022-12-25T11:58:29.139Z,10.28
2022-12-25T12:00:57.903Z,10.32
2022-12-25T12:03:36.525Z,10.32
2022-12-25T12:06:05.743Z,10.31
2022-12-25T12:08:34.051Z,10.29
2022-12-25T12:11:18.734Z,10.30
2022-12-25T12:14:50.972Z,10.31
2022-12-25T12:17:18.974Z,10.26
2022-12-25T12:19:46.036Z,10.36
2022-12-25T12:22:25.111Z,10.32
2022-12-25T12:25:06.091Z,10.32
2022-12-25T12:27:37.479Z,10.36
2022-12-25T12:30:09.802Z,10.41
2022-12-25T12:32:45.117Z,10.41
2022-12-25T12:35:26.469Z,10.41
2022-12-25T12:37:57.899Z,10.42
2022-12-25T12:40:36.519Z,10.44
2022-12-25T12:43:05.692Z,10.42
2022-12-25T12:45:35.945Z,10.48
2022-12-25T12:48:14.904Z,10.51
2022-12-25T12:50:42.650Z,10.50
2022-12-25T12:53:17.409Z,10.50
2022-12-25T12:55:44.216Z,10.47
2022-12-25T12:58:27.669Z,10.47
2022-12-25T13:01:27.382Z,10.44
2022-12-25T13:04:09.175Z,10.48
2022-12-25T13:07:00.976Z,10.46
2022-12-25T13:09:42.695Z,10.41
2022-12-25T13:12:12.532Z,10.40
2022-12-25T13:14:45.908Z,10.37
2022-12-25T13:17:17.089Z,10.39
2022-12-25T13:19:44.595Z,10.39
2022-12-25T13:22:32.784Z,10.37
2022-12-25T13:25:05.106Z,10.41
2022-12-25T13:27:33.627Z,10.40
2022-12-25T13:30:11.517Z,10.44
2022-12-25T13:32:38.336Z,10.44
2022-12-25T13:35:11.711Z,10.47
2022-12-25T13:37:38.843Z,10.49
2022-12-25T13:40:08.324Z,10.51
2022-12-25T13:42:37.657Z,10.52
2022-12-25T13:45:22.022Z,10.53
2022-12-25T13:47:55.151Z,10.54
2022-12-25T13:50:26.657Z,10.54
2022-12-25T13:52:56.756Z,10.53
2022-12-25T13:55:29.335Z,10.54
2022-12-25T13:57:56.254Z,10.54
2022-12-25T14:00:32.105Z,10.52
2022-12-25T14:02:59.720Z,10.48
2022-12-25T14:05:34.736Z,10.53
2022-12-25T14:08:23.038Z,10.46
2022-12-25T14:10:52.593Z,10.51
2022-12-25T14:13:23.411Z,10.51
2022-12-25T14:15:52.533Z,10.53
2022-12-25T14:18:21.669Z,10.53
2022-12-25T14:21:00.509Z,10.50
2022-12-25T14:23:33.394Z,10.54
2022-12-25T14:26:00.199Z,10.55
2022-12-25T14:28:32.849Z,10.52
2022-12-25T14:31:01.940Z,10.51
2022-12-25T14:33:35.232Z,10.49
2022-12-25T14:36:02.713Z,10.47
2022-12-25T14:38:35.199Z,10.49
2022-12-25T14:41:05.817Z,10.53
2022-12-25T14:43:34.525Z,10.49
2022-12-25T14:46:06.516Z,10.47
2022-12-25T14:48:34.146Z,10.46
2022-12-25T14:51:17.343Z,10.48
2022-12-25T14:53:56.089Z,10.48
2022-12-25T14:56:26.017Z,10.49
2022-12-25T14:58:55.814Z,10.47
2022-12-25T15:01:29.471Z,10.46
2022-12-25T15:04:23.865Z,10.47
2022-12-25T15:07:10.816Z,10.47
2022-12-25T15:09:37.869Z,10.45
2022-12-25T15:12:06.005Z,10.47
2022-12-25T15:14:36.355Z,10.51
2022-12-25T15:17:03.216Z,10.52
2022-12-25T15:19:37.630Z,10.51
2022-12-25T15:22:06.136Z,10.52
2022-12-25T15:24:32.962Z,10.54
2022-12-25T15:27:00.710Z,10.56
2022-12-25T15:32:19.144Z,10.56
2022-12-25T15:34:49.671Z,10.52
2022-12-25T15:37:18.695Z,10.56
2022-12-25T15:39:46.717Z,10.53
2022-12-25T15:42:17.119Z,10.55
2022-12-25T15:44:45.270Z,10.54
2022-12-25T15:47:14.251Z,10.54
2022-12-25T15:49:41.591Z,10.56
2022-12-25T15:52:14.174Z,10.56
2022-12-25T15:54:41.343Z,10.59
2022-12-25T15:57:27.273Z,10.58
2022-12-25T15:59:54.416Z,10.58
2022-12-25T16:02:21.439Z,10.57
2022-12-25T16:04:51.162Z,10.59
2022-12-25T16:07:20.621Z,10.60
2022-12-25T16:09:47.921Z,10.62
2022-12-25T16:12:14.861Z,10.64
2022-12-25T16:14:42.246Z,10.62
2022-12-25T16:17:15.694Z,10.62
2022-12-25T16:19:44.737Z,10.65
2022-12-25T16:22:21.599Z,10.66
2022-12-25T16:24:49.810Z,10.67
2022-12-25T16:27:16.680Z,10.67
2022-12-25T16:29:44.399Z,10.67
2022-12-25T16:32:13.043Z,10.69
2022-12-25T16:34:40.758Z,10.70
2022-12-25T16:37:07.942Z,10.71
2022-12-25T16:39:34.849Z,10.76
2022-12-25T16:42:02.120Z,10.75
2022-12-25T16:44:29.389Z,10.80
2022-12-25T16:46:56.341Z,10.78
2022-12-25T16:49:23.586Z,10.79
2022-12-25T16:51:50.683Z,10.80
2022-12-25T16:54:17.549Z,10.82
2022-12-25T16:56:44.572Z,10.82
2022-12-25T16:59:11.766Z,10.82
2022-12-25T17:01:43.161Z,10.85
2022-12-25T17:04:10.339Z,10.81
2022-12-25T17:06:37.912Z,10.83
2022-12-25T17:09:04.865Z,10.86
2022-12-25T17:11:32.525Z,10.84
2022-12-25T17:14:02.762Z,10.85
2022-12-25T17:16:32.644Z,10.85
2022-12-25T17:19:21.641Z,10.85
2022-12-25T17:21:48.622Z,10.86
2022-12-25T17:24:17.100Z,10.84
2022-12-25T17:26:44.770Z,10.88
2022-12-25T17:29:15.982Z,10.87
2022-12-25T17:31:47.258Z,10.91
2022-12-25T17:34:15.101Z,10.91
2022-12-25T17:36:42.011Z,10.91
2022-12-25T17:39:10.489Z,10.94
2022-12-25T17:41:37.319Z,10.95
2022-12-25T17:44:04.435Z,10.96
2022-12-25T17:46:32.288Z,10.98
2022-12-25T17:49:00.989Z,10.99
2022-12-25T17:51:29.886Z,10.98
2022-12-25T17:54:00.212Z,10.96
2022-12-25T17:56:27.206Z,10.98
2022-12-25T17:58:56.965Z,10.99
2022-12-25T18:01:25.316Z,10.96
2022-12-25T18:03:52.846Z,10.96
2022-12-25T18:06:22.727Z,10.99
2022-12-25T18:08:50.375Z,10.97
2022-12-25T18:11:29.282Z,10.97
2022-12-25T18:13:58.346Z,11.02
2022-12-25T18:16:26.534Z,11.04
2022-12-25T18:18:54.366Z,11.02
2022-12-25T18:21:22.739Z,11.00
2022-12-25T18:23:50.447Z,11.00
2022-12-25T18:26:18.078Z,11.05
2022-12-25T18:28:45.076Z,11.04
2022-12-25T18:31:15.525Z,11.04
2022-12-25T18:33:43.466Z,11.05
2022-12-25T18:36:12.692Z,11.06
2022-12-25T18:38:40.159Z,11.13
2022-12-25T18:41:09.130Z,11.13
2022-12-25T18:43:53.847Z,11.20
2022-12-25T18:46:25.359Z,11.26
2022-12-25T18:48:53.642Z,11.28
2022-12-25T18:51:20.675Z,11.32
2022-12-25T18:53:47.596Z,11.33
2022-12-25T18:56:18.264Z,11.37
2022-12-25T18:58:47.041Z,11.33
2022-12-25T19:01:19.390Z,11.30
2022-12-25T19:03:46.383Z,11.30
2022-12-25T19:06:21.608Z,11.25
2022-12-25T19:08:49.184Z,11.27
2022-12-25T19:11:17.459Z,11.24
2022-12-25T19:13:45.766Z,11.24
2022-12-25T19:16:13.335Z,11.20
2022-12-25T19:18:40.629Z,11.21
2022-12-25T19:21:08.739Z,11.19
2022-12-25T19:23:37.965Z,11.15
2022-12-25T19:26:07.600Z,11.14
2022-12-25T19:28:35.352Z,11.13
2022-12-25T19:31:04.290Z,11.15
2022-12-25T19:33:31.922Z,11.14
2022-12-25T19:36:05.612Z,11.12
2022-12-25T19:38:33.614Z,11.10
2022-12-25T19:41:18.248Z,11.09
2022-12-25T19:43:47.623Z,11.07
2022-12-25T19:46:20.149Z,11.05
2022-12-25T19:48:47.662Z,11.06
2022-12-25T19:51:39.129Z,11.05
2022-12-25T19:54:06.638Z,11.05
2022-12-25T19:56:34.363Z,11.05
2022-12-25T19:59:01.584Z,11.02
2022-12-25T20:01:29.379Z,11.01
2022-12-25T20:03:56.982Z,11.08
2022-12-25T20:06:29.861Z,11.08
2022-12-25T20:09:00.013Z,11.05
2022-12-25T20:11:30.112Z,11.05
2022-12-25T20:13:58.087Z,11.08
2022-12-25T20:16:25.883Z,11.06
2022-12-25T20:18:53.972Z,11.05
2022-12-25T20:21:22.815Z,11.03
2022-12-25T20:23:51.904Z,11.01
2022-12-25T20:26:21.811Z,11.06
2022-12-25T20:28:48.949Z,11.03
2022-12-25T20:31:18.064Z,10.99
2022-12-25T20:33:45.846Z,11.00
2022-12-25T20:36:13.167Z,11.00
2022-12-25T20:38:40.120Z,11.00
2022-12-25T20:41:27.926Z,11.03
2022-12-25T20:43:56.839Z,11.02
2022-12-25T20:46:24.884Z,11.03
2022-12-25T20:48:53.092Z,11.08
2022-12-25T20:51:26.271Z,11.07
2022-12-25T20:53:54.320Z,11.08
2022-12-25T20:56:23.387Z,11.09
2022-12-25T20:58:54.842Z,11.09
2022-12-25T21:01:22.122Z,11.14
2022-12-25T21:03:49.221Z,11.11
2022-12-25T21:06:16.607Z,11.09
2022-12-25T21:08:43.350Z,11.11
2022-12-25T21:11:11.184Z,11.18
2022-12-25T21:13:42.931Z,11.22
2022-12-25T21:16:13.472Z,11.23
2022-12-25T21:18:40.733Z,11.22
2022-12-25T21:21:07.950Z,11.20
2022-12-25T21:23:37.630Z,11.20
2022-12-25T21:26:15.918Z,11.19
2022-12-25T21:28:42.889Z,11.19
2022-12-25T21:31:10.078Z,11.22
2022-12-25T21:33:52.404Z,11.22
2022-12-25T21:36:32.081Z,11.22
2022-12-25T21:39:02.681Z,11.19
2022-12-25T21:41:31.355Z,11.20
2022-12-25T21:44:00.401Z,11.23
2022-12-25T21:46:28.797Z,11.21
2022-12-25T21:48:58.266Z,11.20
2022-12-25T21:51:49.258Z,11.23
2022-12-25T21:54:18.082Z,11.17
2022-12-25T21:56:47.212Z,11.18
2022-12-25T21:59:17.592Z,11.12
2022-12-25T22:01:45.651Z,11.12
2022-12-25T22:04:14.395Z,11.25
2022-12-25T22:07:01.209Z,11.17
2022-12-25T22:09:28.985Z,11.15
2022-12-25T22:12:14.526Z,11.11
2022-12-25T22:14:54.052Z,11.12
2022-12-25T22:17:52.293Z,11.10
2022-12-25T22:20:27.692Z,11.14
2022-12-25T22:22:54.997Z,11.15
2022-12-25T22:25:23.409Z,11.09
2022-12-25T22:27:51.192Z,11.09
2022-12-25T22:30:23.932Z,11.07
2022-12-25T22:32:51.903Z,11.06
2022-12-25T22:35:20.326Z,11.06
2022-12-25T22:37:48.210Z,11.08
2022-12-25T22:40:16.894Z,11.08
2022-12-25T22:42:43.862Z,11.14
2022-12-25T22:45:11.710Z,11.12
2022-12-25T22:47:38.886Z,11.05
2022-12-25T22:50:06.672Z,11.11
2022-12-25T22:52:33.843Z,11.12
2022-12-25T22:55:00.680Z,11.14
2022-12-25T22:57:27.900Z,11.09
2022-12-25T22:59:55.175Z,11.08
2022-12-25T23:02:22.455Z,11.07
2022-12-25T23:04:50.785Z,11.06
2022-12-25T23:07:18.150Z,11.08
2022-12-25T23:09:45.787Z,11.06
2022-12-25T23:12:32.902Z,11.04
2022-12-25T23:14:59.909Z,11.04
2022-12-25T23:17:45.839Z,11.18
2022-12-25T23:20:33.208Z,11.07
2022-12-25T23:23:19.680Z,11.04
2022-12-25T23:26:05.487Z,11.03
2022-12-25T23:28:51.217Z,11.03
2022-12-25T23:31:18.488Z,10.99
2022-12-25T23:33:45.821Z,10.95
2022-12-25T23:36:13.508Z,10.96
2022-12-25T23:38:40.091Z,10.94
2022-12-25T23:41:08.072Z,10.95
2022-12-25T23:43:35.097Z,10.97
2022-12-25T23:46:02.353Z,10.93
2022-12-25T23:48:29.569Z,10.89
2022-12-25T23:50:56.566Z,10.86
2022-12-25T23:53:23.635Z,10.84
2022-12-25T23:55:55.525Z,10.83
2022-12-25T23:58:24.460Z,10.80
